sensor_id;sensor_type;location;lat;lon;timestamp;P1;durP1;ratioP1;P2;durP2;ratioP2
30378;SDS011;17168;49.164;9.060;2022-08-02T00:00:50;3.00;;;1.67;;
30378;SDS011;17168;49.164;9.060;2022-08-02T00:03:21;5.80;;;1.70;;
30378;SDS011;17168;49.164;9.060;2022-08-02T00:05:51;1.63;;;1.40;;
30378;SDS011;17168;49.164;9.060;2022-08-02T00:08:19;2.75;;;1.67;;
30378;SDS011;17168;49.164;9.060;2022-08-02T00:10:46;2.28;;;1.40;;
30378;SDS011;17168;49.164;9.060;2022-08-02T00:13:13;6.95;;;1.67;;
30378;SDS011;17168;49.164;9.060;2022-08-02T00:15:40;1.45;;;1.35;;
30378;SDS011;17168;49.164;9.060;2022-08-02T00:18:07;2.83;;;1.35;;
30378;SDS011;17168;49.164;9.060;2022-08-02T00:20:34;4.78;;;1.67;;
30378;SDS011;17168;49.164;9.060;2022-08-02T00:23:02;2.90;;;1.73;;
30378;SDS011;17168;49.164;9.060;2022-08-02T00:25:29;1.90;;;1.48;;
30378;SDS011;17168;49.164;9.060;2022-08-02T00:27:56;2.25;;;1.50;;
30378;SDS011;17168;49.164;9.060;2022-08-02T00:30:22;6.65;;;1.40;;
30378;SDS011;17168;49.164;9.060;2022-08-02T00:32:49;8.63;;;1.70;;
30378;SDS011;17168;49.164;9.060;2022-08-02T00:35:16;5.03;;;1.80;;
30378;SDS011;17168;49.164;9.060;2022-08-02T00:37:43;1.90;;;1.70;;
30378;SDS011;17168;49.164;9.060;2022-08-02T00:40:11;6.93;;;1.65;;
30378;SDS011;17168;49.164;9.060;2022-08-02T00:42:38;6.95;;;1.80;;
30378;SDS011;17168;49.164;9.060;2022-08-02T00:45:06;3.38;;;1.70;;
30378;SDS011;17168;49.164;9.060;2022-08-02T00:47:33;2.08;;;1.70;;
30378;SDS011;17168;49.164;9.060;2022-08-02T00:50:00;2.80;;;1.52;;
30378;SDS011;17168;49.164;9.060;2022-08-02T00:52:27;2.35;;;1.73;;
30378;SDS011;17168;49.164;9.060;2022-08-02T00:54:54;1.70;;;1.60;;
30378;SDS011;17168;49.164;9.060;2022-08-02T00:57:22;2.50;;;1.67;;
30378;SDS011;17168;49.164;9.060;2022-08-02T00:59:49;3.28;;;2.05;;
30378;SDS011;17168;49.164;9.060;2022-08-02T01:02:16;5.43;;;2.08;;
30378;SDS011;17168;49.164;9.060;2022-08-02T01:04:43;2.60;;;2.05;;
30378;SDS011;17168;49.164;9.060;2022-08-02T01:07:10;4.43;;;1.90;;
30378;SDS011;17168;49.164;9.060;2022-08-02T01:09:38;6.30;;;2.30;;
30378;SDS011;17168;49.164;9.060;2022-08-02T01:12:06;4.22;;;2.20;;
30378;SDS011;17168;49.164;9.060;2022-08-02T01:14:35;4.40;;;2.13;;
30378;SDS011;17168;49.164;9.060;2022-08-02T01:17:06;2.22;;;1.83;;
30378;SDS011;17168;49.164;9.060;2022-08-02T01:19:39;4.40;;;2.25;;
30378;SDS011;17168;49.164;9.060;2022-08-02T01:22:22;3.83;;;2.10;;
30378;SDS011;17168;49.164;9.060;2022-08-02T01:25:40;2.40;;;2.00;;
30378;SDS011;17168;49.164;9.060;2022-08-02T01:28:27;3.42;;;2.20;;
30378;SDS011;17168;49.164;9.060;2022-08-02T01:31:00;3.22;;;1.98;;
30378;SDS011;17168;49.164;9.060;2022-08-02T01:33:34;7.45;;;2.20;;
30378;SDS011;17168;49.164;9.060;2022-08-02T01:36:05;3.58;;;2.30;;
30378;SDS011;17168;49.164;9.060;2022-08-02T01:38:38;3.53;;;2.25;;
30378;SDS011;17168;49.164;9.060;2022-08-02T01:41:08;3.50;;;2.15;;
30378;SDS011;17168;49.164;9.060;2022-08-02T01:43:41;3.88;;;2.30;;
30378;SDS011;17168;49.164;9.060;2022-08-02T01:46:10;8.18;;;2.50;;
30378;SDS011;17168;49.164;9.060;2022-08-02T01:48:39;3.25;;;2.53;;
30378;SDS011;17168;49.164;9.060;2022-08-02T01:51:07;4.72;;;2.65;;
30378;SDS011;17168;49.164;9.060;2022-08-02T01:53:36;5.05;;;2.70;;
30378;SDS011;17168;49.164;9.060;2022-08-02T01:56:06;5.10;;;2.90;;
30378;SDS011;17168;49.164;9.060;2022-08-02T01:58:34;9.10;;;2.70;;
30378;SDS011;17168;49.164;9.060;2022-08-02T02:01:04;5.80;;;3.05;;
30378;SDS011;17168;49.164;9.060;2022-08-02T02:03:33;4.30;;;2.85;;
30378;SDS011;17168;49.164;9.060;2022-08-02T02:06:07;5.40;;;2.55;;
30378;SDS011;17168;49.164;9.060;2022-08-02T02:08:37;5.38;;;2.90;;
30378;SDS011;17168;49.164;9.060;2022-08-02T02:11:06;5.35;;;2.85;;
30378;SDS011;17168;49.164;9.060;2022-08-02T02:13:54;5.00;;;2.67;;
30378;SDS011;17168;49.164;9.060;2022-08-02T02:16:25;6.85;;;2.90;;
30378;SDS011;17168;49.164;9.060;2022-08-02T02:18:53;4.55;;;2.78;;
30378;SDS011;17168;49.164;9.060;2022-08-02T02:21:20;5.43;;;3.20;;
30378;SDS011;17168;49.164;9.060;2022-08-02T02:23:47;4.35;;;2.70;;
30378;SDS011;17168;49.164;9.060;2022-08-02T02:26:16;3.75;;;2.65;;
30378;SDS011;17168;49.164;9.060;2022-08-02T02:28:56;4.38;;;3.05;;
30378;SDS011;17168;49.164;9.060;2022-08-02T02:31:26;3.85;;;2.80;;
30378;SDS011;17168;49.164;9.060;2022-08-02T02:33:57;8.88;;;3.50;;
30378;SDS011;17168;49.164;9.060;2022-08-02T02:36:27;3.33;;;2.95;;
30378;SDS011;17168;49.164;9.060;2022-08-02T02:38:54;7.78;;;2.97;;
30378;SDS011;17168;49.164;9.060;2022-08-02T02:41:24;10.15;;;3.08;;
30378;SDS011;17168;49.164;9.060;2022-08-02T02:43:54;4.75;;;3.13;;
30378;SDS011;17168;49.164;9.060;2022-08-02T02:46:23;8.50;;;3.20;;
30378;SDS011;17168;49.164;9.060;2022-08-02T02:48:53;4.28;;;3.05;;
30378;SDS011;17168;49.164;9.060;2022-08-02T02:51:20;3.70;;;2.95;;
30378;SDS011;17168;49.164;9.060;2022-08-02T02:53:48;5.35;;;2.80;;
30378;SDS011;17168;49.164;9.060;2022-08-02T02:56:37;5.90;;;2.80;;
30378;SDS011;17168;49.164;9.060;2022-08-02T02:59:05;5.75;;;3.08;;
30378;SDS011;17168;49.164;9.060;2022-08-02T03:01:33;5.68;;;2.60;;
30378;SDS011;17168;49.164;9.060;2022-08-02T03:04:21;7.32;;;3.50;;
30378;SDS011;17168;49.164;9.060;2022-08-02T03:06:50;6.07;;;3.28;;
30378;SDS011;17168;49.164;9.060;2022-08-02T03:09:17;10.70;;;3.70;;
30378;SDS011;17168;49.164;9.060;2022-08-02T03:11:43;5.22;;;3.58;;
30378;SDS011;17168;49.164;9.060;2022-08-02T03:14:12;6.05;;;3.97;;
30378;SDS011;17168;49.164;9.060;2022-08-02T03:16:43;10.25;;;4.45;;
30378;SDS011;17168;49.164;9.060;2022-08-02T03:19:11;6.50;;;4.13;;
30378;SDS011;17168;49.164;9.060;2022-08-02T03:21:39;5.70;;;4.40;;
30378;SDS011;17168;49.164;9.060;2022-08-02T03:24:07;6.97;;;4.30;;
30378;SDS011;17168;49.164;9.060;2022-08-02T03:26:34;5.32;;;4.15;;
30378;SDS011;17168;49.164;9.060;2022-08-02T03:29:02;6.10;;;4.00;;
30378;SDS011;17168;49.164;9.060;2022-08-02T03:31:36;5.30;;;3.85;;
30378;SDS011;17168;49.164;9.060;2022-08-02T03:34:06;5.30;;;3.67;;
30378;SDS011;17168;49.164;9.060;2022-08-02T03:36:33;5.63;;;3.72;;
30378;SDS011;17168;49.164;9.060;2022-08-02T03:39:03;6.15;;;4.18;;
30378;SDS011;17168;49.164;9.060;2022-08-02T03:41:31;5.93;;;4.10;;
30378;SDS011;17168;49.164;9.060;2022-08-02T03:44:00;4.80;;;3.60;;
30378;SDS011;17168;49.164;9.060;2022-08-02T03:46:28;7.55;;;4.22;;
30378;SDS011;17168;49.164;9.060;2022-08-02T03:48:55;6.93;;;4.13;;
30378;SDS011;17168;49.164;9.060;2022-08-02T03:51:23;7.07;;;4.55;;
30378;SDS011;17168;49.164;9.060;2022-08-02T03:53:50;8.35;;;4.35;;
30378;SDS011;17168;49.164;9.060;2022-08-02T03:56:18;6.28;;;4.40;;
30378;SDS011;17168;49.164;9.060;2022-08-02T03:58:48;7.05;;;4.60;;
30378;SDS011;17168;49.164;9.060;2022-08-02T04:01:15;7.32;;;5.05;;
30378;SDS011;17168;49.164;9.060;2022-08-02T04:03:42;6.18;;;5.20;;
30378;SDS011;17168;49.164;9.060;2022-08-02T04:06:09;7.20;;;5.35;;
30378;SDS011;17168;49.164;9.060;2022-08-02T04:08:36;7.50;;;4.85;;
30378;SDS011;17168;49.164;9.060;2022-08-02T04:11:04;6.85;;;4.47;;
30378;SDS011;17168;49.164;9.060;2022-08-02T04:13:51;5.75;;;4.57;;
30378;SDS011;17168;49.164;9.060;2022-08-02T04:16:22;5.13;;;4.43;;
30378;SDS011;17168;49.164;9.060;2022-08-02T04:18:57;5.90;;;4.72;;
30378;SDS011;17168;49.164;9.060;2022-08-02T04:21:27;6.00;;;4.30;;
30378;SDS011;17168;49.164;9.060;2022-08-02T04:24:17;6.88;;;4.15;;
30378;SDS011;17168;49.164;9.060;2022-08-02T04:26:50;6.78;;;4.15;;
30378;SDS011;17168;49.164;9.060;2022-08-02T04:29:20;9.23;;;4.55;;
30378;SDS011;17168;49.164;9.060;2022-08-02T04:31:48;5.72;;;4.40;;
30378;SDS011;17168;49.164;9.060;2022-08-02T04:34:16;10.60;;;4.68;;
30378;SDS011;17168;49.164;9.060;2022-08-02T04:36:43;6.70;;;4.13;;
30378;SDS011;17168;49.164;9.060;2022-08-02T04:39:11;7.97;;;4.82;;
30378;SDS011;17168;49.164;9.060;2022-08-02T04:41:41;8.95;;;4.55;;
30378;SDS011;17168;49.164;9.060;2022-08-02T04:44:10;8.43;;;4.45;;
30378;SDS011;17168;49.164;9.060;2022-08-02T04:46:38;13.93;;;4.78;;
30378;SDS011;17168;49.164;9.060;2022-08-02T04:49:06;6.97;;;4.63;;
30378;SDS011;17168;49.164;9.060;2022-08-02T04:51:33;7.90;;;4.60;;
30378;SDS011;17168;49.164;9.060;2022-08-02T04:54:04;5.78;;;4.22;;
30378;SDS011;17168;49.164;9.060;2022-08-02T04:56:35;7.35;;;4.50;;
30378;SDS011;17168;49.164;9.060;2022-08-02T04:59:02;8.05;;;4.93;;
30378;SDS011;17168;49.164;9.060;2022-08-02T05:01:28;9.95;;;4.90;;
30378;SDS011;17168;49.164;9.060;2022-08-02T05:03:57;5.65;;;4.63;;
30378;SDS011;17168;49.164;9.060;2022-08-02T05:06:24;9.40;;;4.80;;
30378;SDS011;17168;49.164;9.060;2022-08-02T05:08:51;9.48;;;5.15;;
30378;SDS011;17168;49.164;9.060;2022-08-02T05:11:19;8.73;;;5.30;;
30378;SDS011;17168;49.164;9.060;2022-08-02T05:13:46;9.05;;;5.40;;
30378;SDS011;17168;49.164;9.060;2022-08-02T05:16:24;7.10;;;5.22;;
30378;SDS011;17168;49.164;9.060;2022-08-02T05:18:58;8.68;;;5.40;;
30378;SDS011;17168;49.164;9.060;2022-08-02T05:21:26;9.35;;;5.32;;
30378;SDS011;17168;49.164;9.060;2022-08-02T05:23:53;11.43;;;5.40;;
30378;SDS011;17168;49.164;9.060;2022-08-02T05:26:20;9.65;;;5.63;;
30378;SDS011;17168;49.164;9.060;2022-08-02T05:28:47;9.25;;;5.68;;
30378;SDS011;17168;49.164;9.060;2022-08-02T05:31:13;17.60;;;5.47;;
30378;SDS011;17168;49.164;9.060;2022-08-02T05:33:40;7.35;;;5.22;;
30378;SDS011;17168;49.164;9.060;2022-08-02T05:36:08;8.15;;;5.13;;
30378;SDS011;17168;49.164;9.060;2022-08-02T05:38:35;8.88;;;5.53;;
30378;SDS011;17168;49.164;9.060;2022-08-02T05:41:03;8.55;;;4.38;;
30378;SDS011;17168;49.164;9.060;2022-08-02T05:43:30;9.85;;;5.40;;
30378;SDS011;17168;49.164;9.060;2022-08-02T05:45:58;8.75;;;5.93;;
30378;SDS011;17168;49.164;9.060;2022-08-02T05:48:25;6.35;;;5.30;;
30378;SDS011;17168;49.164;9.060;2022-08-02T05:50:59;11.48;;;4.78;;
30378;SDS011;17168;49.164;9.060;2022-08-02T05:53:33;6.55;;;4.30;;
30378;SDS011;17168;49.164;9.060;2022-08-02T05:56:08;7.05;;;5.00;;
30378;SDS011;17168;49.164;9.060;2022-08-02T05:58:47;7.13;;;4.78;;
30378;SDS011;17168;49.164;9.060;2022-08-02T06:01:19;8.20;;;5.15;;
30378;SDS011;17168;49.164;9.060;2022-08-02T06:03:51;5.20;;;4.70;;
30378;SDS011;17168;49.164;9.060;2022-08-02T06:06:21;8.77;;;5.85;;
30378;SDS011;17168;49.164;9.060;2022-08-02T06:08:54;10.23;;;5.63;;
30378;SDS011;17168;49.164;9.060;2022-08-02T06:11:28;10.10;;;5.90;;
30378;SDS011;17168;49.164;9.060;2022-08-02T06:14:01;8.10;;;4.93;;
30378;SDS011;17168;49.164;9.060;2022-08-02T06:16:28;7.05;;;5.35;;
30378;SDS011;17168;49.164;9.060;2022-08-02T06:18:58;10.88;;;6.07;;
30378;SDS011;17168;49.164;9.060;2022-08-02T06:21:25;9.90;;;5.28;;
30378;SDS011;17168;49.164;9.060;2022-08-02T06:24:15;8.07;;;5.15;;
30378;SDS011;17168;49.164;9.060;2022-08-02T06:26:44;7.40;;;4.80;;
30378;SDS011;17168;49.164;9.060;2022-08-02T06:29:17;12.00;;;4.85;;
30378;SDS011;17168;49.164;9.060;2022-08-02T06:31:48;7.65;;;5.15;;
30378;SDS011;17168;49.164;9.060;2022-08-02T06:34:17;12.20;;;5.00;;
30378;SDS011;17168;49.164;9.060;2022-08-02T06:36:47;8.77;;;4.80;;
30378;SDS011;17168;49.164;9.060;2022-08-02T06:39:20;9.05;;;5.00;;
30378;SDS011;17168;49.164;9.060;2022-08-02T06:41:54;6.93;;;3.92;;
30378;SDS011;17168;49.164;9.060;2022-08-02T06:44:27;5.05;;;4.35;;
30378;SDS011;17168;49.164;9.060;2022-08-02T06:47:14;7.60;;;4.32;;
30378;SDS011;17168;49.164;9.060;2022-08-02T06:49:41;6.70;;;4.13;;
30378;SDS011;17168;49.164;9.060;2022-08-02T06:52:18;9.02;;;3.50;;
30378;SDS011;17168;49.164;9.060;2022-08-02T06:54:53;6.22;;;3.67;;
30378;SDS011;17168;49.164;9.060;2022-08-02T06:57:21;3.42;;;3.13;;
30378;SDS011;17168;49.164;9.060;2022-08-02T06:59:47;6.55;;;4.68;;
30378;SDS011;17168;49.164;9.060;2022-08-02T07:02:14;4.93;;;3.53;;
30378;SDS011;17168;49.164;9.060;2022-08-02T07:04:41;5.88;;;3.65;;
30378;SDS011;17168;49.164;9.060;2022-08-02T07:07:08;5.53;;;4.05;;
30378;SDS011;17168;49.164;9.060;2022-08-02T07:09:35;6.22;;;3.50;;
30378;SDS011;17168;49.164;9.060;2022-08-02T07:12:03;4.05;;;3.10;;
30378;SDS011;17168;49.164;9.060;2022-08-02T07:14:31;5.85;;;3.08;;
30378;SDS011;17168;49.164;9.060;2022-08-02T07:17:00;3.55;;;3.15;;
30378;SDS011;17168;49.164;9.060;2022-08-02T07:19:28;5.60;;;3.13;;
30378;SDS011;17168;49.164;9.060;2022-08-02T07:22:03;3.25;;;2.97;;
30378;SDS011;17168;49.164;9.060;2022-08-02T07:24:30;5.47;;;3.35;;
30378;SDS011;17168;49.164;9.060;2022-08-02T07:26:57;5.70;;;2.80;;
30378;SDS011;17168;49.164;9.060;2022-08-02T07:29:38;3.50;;;2.70;;
30378;SDS011;17168;49.164;9.060;2022-08-02T07:32:12;3.00;;;2.67;;
30378;SDS011;17168;49.164;9.060;2022-08-02T07:34:39;3.28;;;2.97;;
30378;SDS011;17168;49.164;9.060;2022-08-02T07:37:08;3.95;;;2.80;;
30378;SDS011;17168;49.164;9.060;2022-08-02T07:39:55;4.32;;;2.55;;
30378;SDS011;17168;49.164;9.060;2022-08-02T07:42:23;3.75;;;2.78;;
30378;SDS011;17168;49.164;9.060;2022-08-02T07:44:51;3.28;;;2.90;;
30378;SDS011;17168;49.164;9.060;2022-08-02T07:47:18;3.20;;;2.90;;
30378;SDS011;17168;49.164;9.060;2022-08-02T07:49:45;3.78;;;2.70;;
30378;SDS011;17168;49.164;9.060;2022-08-02T07:52:12;3.83;;;2.50;;
30378;SDS011;17168;49.164;9.060;2022-08-02T07:54:39;3.20;;;2.40;;
30378;SDS011;17168;49.164;9.060;2022-08-02T07:57:06;2.45;;;2.22;;
30378;SDS011;17168;49.164;9.060;2022-08-02T07:59:33;2.53;;;2.30;;
30378;SDS011;17168;49.164;9.060;2022-08-02T08:02:01;7.85;;;2.20;;
30378;SDS011;17168;49.164;9.060;2022-08-02T08:04:28;2.63;;;2.28;;
30378;SDS011;17168;49.164;9.060;2022-08-02T08:06:55;7.78;;;2.30;;
30378;SDS011;17168;49.164;9.060;2022-08-02T08:09:22;3.50;;;2.28;;
30378;SDS011;17168;49.164;9.060;2022-08-02T08:11:49;4.15;;;2.63;;
30378;SDS011;17168;49.164;9.060;2022-08-02T08:14:16;3.10;;;2.38;;
30378;SDS011;17168;49.164;9.060;2022-08-02T08:16:43;5.22;;;2.17;;
30378;SDS011;17168;49.164;9.060;2022-08-02T08:19:11;3.35;;;2.40;;
30378;SDS011;17168;49.164;9.060;2022-08-02T08:21:37;6.20;;;2.60;;
30378;SDS011;17168;49.164;9.060;2022-08-02T08:24:04;2.33;;;2.13;;
30378;SDS011;17168;49.164;9.060;2022-08-02T08:26:32;4.93;;;2.58;;
30378;SDS011;17168;49.164;9.060;2022-08-02T08:28:58;2.55;;;2.30;;
30378;SDS011;17168;49.164;9.060;2022-08-02T08:31:27;5.63;;;2.58;;
30378;SDS011;17168;49.164;9.060;2022-08-02T08:33:53;5.05;;;2.20;;
30378;SDS011;17168;49.164;9.060;2022-08-02T08:36:23;3.38;;;2.47;;
30378;SDS011;17168;49.164;9.060;2022-08-02T08:38:50;5.03;;;2.20;;
30378;SDS011;17168;49.164;9.060;2022-08-02T08:41:17;5.18;;;2.45;;
30378;SDS011;17168;49.164;9.060;2022-08-02T08:43:44;7.50;;;2.55;;
30378;SDS011;17168;49.164;9.060;2022-08-02T08:46:20;2.75;;;2.30;;
30378;SDS011;17168;49.164;9.060;2022-08-02T08:51:19;5.47;;;2.50;;
30378;SDS011;17168;49.164;9.060;2022-08-02T08:53:49;4.40;;;2.28;;
30378;SDS011;17168;49.164;9.060;2022-08-02T08:56:19;6.30;;;2.78;;
30378;SDS011;17168;49.164;9.060;2022-08-02T08:58:46;2.35;;;2.05;;
30378;SDS011;17168;49.164;9.060;2022-08-02T09:01:13;6.50;;;2.22;;
30378;SDS011;17168;49.164;9.060;2022-08-02T09:03:42;2.15;;;1.95;;
30378;SDS011;17168;49.164;9.060;2022-08-02T09:06:09;3.25;;;2.40;;
30378;SDS011;17168;49.164;9.060;2022-08-02T09:08:36;3.85;;;2.47;;
30378;SDS011;17168;49.164;9.060;2022-08-02T09:11:12;5.07;;;2.20;;
30378;SDS011;17168;49.164;9.060;2022-08-02T09:13:47;3.20;;;1.95;;
30378;SDS011;17168;49.164;9.060;2022-08-02T09:16:15;4.32;;;2.20;;
30378;SDS011;17168;49.164;9.060;2022-08-02T09:18:53;3.70;;;2.15;;
30378;SDS011;17168;49.164;9.060;2022-08-02T09:21:20;4.93;;;2.55;;
30378;SDS011;17168;49.164;9.060;2022-08-02T09:23:48;2.85;;;1.98;;
30378;SDS011;17168;49.164;9.060;2022-08-02T09:26:18;6.60;;;2.15;;
30378;SDS011;17168;49.164;9.060;2022-08-02T09:28:47;7.07;;;2.53;;
30378;SDS011;17168;49.164;9.060;2022-08-02T09:31:19;15.88;;;4.57;;
30378;SDS011;17168;49.164;9.060;2022-08-02T09:33:49;11.40;;;3.20;;
30378;SDS011;17168;49.164;9.060;2022-08-02T09:36:17;4.20;;;2.42;;
30378;SDS011;17168;49.164;9.060;2022-08-02T09:38:51;3.30;;;2.30;;
30378;SDS011;17168;49.164;9.060;2022-08-02T09:41:22;4.22;;;2.17;;
30378;SDS011;17168;49.164;9.060;2022-08-02T09:43:50;4.22;;;2.20;;
30378;SDS011;17168;49.164;9.060;2022-08-02T09:46:31;6.40;;;2.20;;
30378;SDS011;17168;49.164;9.060;2022-08-02T09:49:02;2.17;;;1.98;;
30378;SDS011;17168;49.164;9.060;2022-08-02T09:51:31;4.10;;;2.08;;
30378;SDS011;17168;49.164;9.060;2022-08-02T09:54:02;2.67;;;2.20;;
30378;SDS011;17168;49.164;9.060;2022-08-02T09:56:43;2.47;;;2.20;;
30378;SDS011;17168;49.164;9.060;2022-08-02T09:59:12;4.47;;;2.38;;
30378;SDS011;17168;49.164;9.060;2022-08-02T10:01:39;6.90;;;2.38;;
30378;SDS011;17168;49.164;9.060;2022-08-02T10:04:18;2.80;;;2.20;;
30378;SDS011;17168;49.164;9.060;2022-08-02T10:06:50;5.95;;;2.20;;
30378;SDS011;17168;49.164;9.060;2022-08-02T10:09:19;9.88;;;2.65;;
30378;SDS011;17168;49.164;9.060;2022-08-02T10:11:48;4.22;;;2.15;;
30378;SDS011;17168;49.164;9.060;2022-08-02T10:14:16;7.13;;;2.47;;
30378;SDS011;17168;49.164;9.060;2022-08-02T10:16:45;4.32;;;2.45;;
30378;SDS011;17168;49.164;9.060;2022-08-02T10:19:12;2.70;;;2.00;;
30378;SDS011;17168;49.164;9.060;2022-08-02T10:21:42;3.40;;;2.53;;
30378;SDS011;17168;49.164;9.060;2022-08-02T10:24:12;14.93;;;2.03;;
30378;SDS011;17168;49.164;9.060;2022-08-02T10:26:42;6.15;;;2.75;;
30378;SDS011;17168;49.164;9.060;2022-08-02T10:29:15;5.50;;;2.35;;
30378;SDS011;17168;49.164;9.060;2022-08-02T10:31:45;8.27;;;2.20;;
30378;SDS011;17168;49.164;9.060;2022-08-02T10:34:16;6.90;;;2.15;;
30378;SDS011;17168;49.164;9.060;2022-08-02T10:36:46;3.42;;;1.92;;
30378;SDS011;17168;49.164;9.060;2022-08-02T10:39:14;4.70;;;2.20;;
30378;SDS011;17168;49.164;9.060;2022-08-02T10:41:41;6.03;;;2.00;;
30378;SDS011;17168;49.164;9.060;2022-08-02T10:44:24;4.93;;;2.13;;
30378;SDS011;17168;49.164;9.060;2022-08-02T10:46:52;2.88;;;1.95;;
30378;SDS011;17168;49.164;9.060;2022-08-02T10:49:46;4.35;;;2.30;;
30378;SDS011;17168;49.164;9.060;2022-08-02T10:52:13;6.72;;;2.30;;
30378;SDS011;17168;49.164;9.060;2022-08-02T10:54:42;5.22;;;2.10;;
30378;SDS011;17168;49.164;9.060;2022-08-02T10:57:19;6.05;;;2.03;;
30378;SDS011;17168;49.164;9.060;2022-08-02T10:59:50;3.88;;;2.03;;
30378;SDS011;17168;49.164;9.060;2022-08-02T11:05:07;4.70;;;2.13;;
30378;SDS011;17168;49.164;9.060;2022-08-02T11:10:26;2.85;;;2.00;;
30378;SDS011;17168;49.164;9.060;2022-08-02T11:13:04;4.68;;;2.15;;
30378;SDS011;17168;49.164;9.060;2022-08-02T11:15:51;5.75;;;1.80;;
30378;SDS011;17168;49.164;9.060;2022-08-02T11:18:20;4.88;;;1.90;;
30378;SDS011;17168;49.164;9.060;2022-08-02T11:23:45;3.15;;;2.08;;
30378;SDS011;17168;49.164;9.060;2022-08-02T11:29:10;2.40;;;1.63;;
30378;SDS011;17168;49.164;9.060;2022-08-02T11:31:43;3.55;;;1.70;;
30378;SDS011;17168;49.164;9.060;2022-08-02T11:34:11;2.45;;;1.60;;
30378;SDS011;17168;49.164;9.060;2022-08-02T11:36:58;5.13;;;1.80;;
30378;SDS011;17168;49.164;9.060;2022-08-02T11:39:26;1.98;;;1.80;;
30378;SDS011;17168;49.164;9.060;2022-08-02T11:41:53;5.63;;;2.03;;
30378;SDS011;17168;49.164;9.060;2022-08-02T11:44:24;2.08;;;1.60;;
30378;SDS011;17168;49.164;9.060;2022-08-02T11:46:54;4.63;;;2.03;;
30378;SDS011;17168;49.164;9.060;2022-08-02T11:49:22;3.40;;;1.92;;
30378;SDS011;17168;49.164;9.060;2022-08-02T11:51:50;2.30;;;1.90;;
30378;SDS011;17168;49.164;9.060;2022-08-02T11:54:23;5.80;;;1.70;;
30378;SDS011;17168;49.164;9.060;2022-08-02T11:56:51;3.93;;;2.30;;
30378;SDS011;17168;49.164;9.060;2022-08-02T11:59:18;2.65;;;2.10;;
30378;SDS011;17168;49.164;9.060;2022-08-02T12:01:45;2.42;;;2.03;;
30378;SDS011;17168;49.164;9.060;2022-08-02T12:04:16;3.83;;;2.03;;
30378;SDS011;17168;49.164;9.060;2022-08-02T12:06:54;5.38;;;1.60;;
30378;SDS011;17168;49.164;9.060;2022-08-02T12:09:22;12.85;;;4.35;;
30378;SDS011;17168;49.164;9.060;2022-08-02T12:11:51;3.15;;;1.83;;
30378;SDS011;17168;49.164;9.060;2022-08-02T12:14:19;2.40;;;1.90;;
30378;SDS011;17168;49.164;9.060;2022-08-02T12:16:46;1.67;;;1.52;;
30378;SDS011;17168;49.164;9.060;2022-08-02T12:19:34;2.28;;;1.55;;
30378;SDS011;17168;49.164;9.060;2022-08-02T12:22:08;2.75;;;1.60;;
30378;SDS011;17168;49.164;9.060;2022-08-02T12:24:42;3.42;;;1.70;;
30378;SDS011;17168;49.164;9.060;2022-08-02T12:29:57;3.92;;;1.45;;
30378;SDS011;17168;49.164;9.060;2022-08-02T12:35:04;6.15;;;1.63;;
30378;SDS011;17168;49.164;9.060;2022-08-02T12:37:33;5.30;;;1.67;;
30378;SDS011;17168;49.164;9.060;2022-08-02T12:42:50;3.15;;;1.80;;
30378;SDS011;17168;49.164;9.060;2022-08-02T12:45:19;3.90;;;1.48;;
30378;SDS011;17168;49.164;9.060;2022-08-02T12:47:46;4.20;;;1.80;;
30378;SDS011;17168;49.164;9.060;2022-08-02T12:50:16;3.83;;;1.65;;
30378;SDS011;17168;49.164;9.060;2022-08-02T12:52:45;3.97;;;1.60;;
30378;SDS011;17168;49.164;9.060;2022-08-02T12:55:13;3.45;;;1.50;;
30378;SDS011;17168;49.164;9.060;2022-08-02T12:57:51;2.70;;;1.48;;
30378;SDS011;17168;49.164;9.060;2022-08-02T13:00:23;1.77;;;1.38;;
30378;SDS011;17168;49.164;9.060;2022-08-02T13:02:51;8.65;;;1.73;;
30378;SDS011;17168;49.164;9.060;2022-08-02T13:05:20;3.55;;;1.40;;
30378;SDS011;17168;49.164;9.060;2022-08-02T13:07:47;4.20;;;1.50;;
30378;SDS011;17168;49.164;9.060;2022-08-02T13:10:14;5.72;;;1.58;;
30378;SDS011;17168;49.164;9.060;2022-08-02T13:12:41;5.72;;;1.65;;
30378;SDS011;17168;49.164;9.060;2022-08-02T13:15:08;4.50;;;1.27;;
30378;SDS011;17168;49.164;9.060;2022-08-02T13:17:55;4.75;;;1.35;;
30378;SDS011;17168;49.164;9.060;2022-08-02T13:20:25;2.95;;;1.60;;
30378;SDS011;17168;49.164;9.060;2022-08-02T13:22:54;6.32;;;1.40;;
30378;SDS011;17168;49.164;9.060;2022-08-02T13:25:29;3.28;;;1.48;;
30378;SDS011;17168;49.164;9.060;2022-08-02T13:27:56;10.85;;;1.88;;
30378;SDS011;17168;49.164;9.060;2022-08-02T13:30:22;8.38;;;1.48;;
30378;SDS011;17168;49.164;9.060;2022-08-02T13:32:49;5.70;;;1.58;;
30378;SDS011;17168;49.164;9.060;2022-08-02T13:35:16;8.40;;;1.52;;
30378;SDS011;17168;49.164;9.060;2022-08-02T13:37:44;5.40;;;1.45;;
30378;SDS011;17168;49.164;9.060;2022-08-02T13:40:13;5.30;;;1.52;;
30378;SDS011;17168;49.164;9.060;2022-08-02T13:42:48;5.07;;;1.55;;
30378;SDS011;17168;49.164;9.060;2022-08-02T13:45:15;12.02;;;2.10;;
30378;SDS011;17168;49.164;9.060;2022-08-02T13:47:42;12.00;;;1.67;;
30378;SDS011;17168;49.164;9.060;2022-08-02T13:50:29;11.43;;;1.58;;
30378;SDS011;17168;49.164;9.060;2022-08-02T13:52:58;4.18;;;1.38;;
30378;SDS011;17168;49.164;9.060;2022-08-02T13:55:25;5.57;;;1.10;;
30378;SDS011;17168;49.164;9.060;2022-08-02T13:57:53;10.27;;;1.38;;
30378;SDS011;17168;49.164;9.060;2022-08-02T14:00:20;4.68;;;1.27;;
30378;SDS011;17168;49.164;9.060;2022-08-02T14:03:02;8.85;;;1.50;;
30378;SDS011;17168;49.164;9.060;2022-08-02T14:05:29;10.90;;;1.13;;
30378;SDS011;17168;49.164;9.060;2022-08-02T14:08:14;11.38;;;1.40;;
30378;SDS011;17168;49.164;9.060;2022-08-02T14:10:43;9.93;;;1.70;;
30378;SDS011;17168;49.164;9.060;2022-08-02T14:13:10;3.28;;;1.40;;
30378;SDS011;17168;49.164;9.060;2022-08-02T14:15:37;5.60;;;1.13;;
30378;SDS011;17168;49.164;9.060;2022-08-02T14:18:04;2.70;;;1.13;;
30378;SDS011;17168;49.164;9.060;2022-08-02T14:20:30;2.80;;;1.20;;
30378;SDS011;17168;49.164;9.060;2022-08-02T14:22:57;4.43;;;1.30;;
30378;SDS011;17168;49.164;9.060;2022-08-02T14:25:25;1.95;;;1.17;;
30378;SDS011;17168;49.164;9.060;2022-08-02T14:27:52;2.20;;;1.13;;
30378;SDS011;17168;49.164;9.060;2022-08-02T14:30:19;2.70;;;1.20;;
30378;SDS011;17168;49.164;9.060;2022-08-02T14:32:48;3.83;;;1.65;;
30378;SDS011;17168;49.164;9.060;2022-08-02T14:35:15;1.40;;;1.30;;
30378;SDS011;17168;49.164;9.060;2022-08-02T14:37:42;1.83;;;1.30;;
30378;SDS011;17168;49.164;9.060;2022-08-02T14:40:09;1.75;;;1.00;;
30378;SDS011;17168;49.164;9.060;2022-08-02T14:42:57;2.95;;;1.00;;
30378;SDS011;17168;49.164;9.060;2022-08-02T14:45:25;3.33;;;1.30;;
30378;SDS011;17168;49.164;9.060;2022-08-02T14:48:07;1.27;;;1.17;;
30378;SDS011;17168;49.164;9.060;2022-08-02T14:50:35;1.40;;;1.10;;
30378;SDS011;17168;49.164;9.060;2022-08-02T14:53:02;3.50;;;1.23;;
30378;SDS011;17168;49.164;9.060;2022-08-02T14:55:29;1.02;;;1.00;;
30378;SDS011;17168;49.164;9.060;2022-08-02T14:57:55;1.63;;;1.15;;
30378;SDS011;17168;49.164;9.060;2022-08-02T15:00:23;1.20;;;1.00;;
30378;SDS011;17168;49.164;9.060;2022-08-02T15:02:53;2.78;;;1.30;;
30378;SDS011;17168;49.164;9.060;2022-08-02T15:05:20;5.80;;;1.27;;
30378;SDS011;17168;49.164;9.060;2022-08-02T15:07:46;3.53;;;1.20;;
30378;SDS011;17168;49.164;9.060;2022-08-02T15:10:15;3.30;;;1.30;;
30378;SDS011;17168;49.164;9.060;2022-08-02T15:12:44;5.13;;;1.23;;
30378;SDS011;17168;49.164;9.060;2022-08-02T15:15:12;2.75;;;1.08;;
30378;SDS011;17168;49.164;9.060;2022-08-02T15:17:39;4.88;;;1.30;;
30378;SDS011;17168;49.164;9.060;2022-08-02T15:20:07;1.67;;;1.30;;
30378;SDS011;17168;49.164;9.060;2022-08-02T15:22:51;1.27;;;1.13;;
30378;SDS011;17168;49.164;9.060;2022-08-02T15:25:18;7.00;;;1.20;;
30378;SDS011;17168;49.164;9.060;2022-08-02T15:27:44;3.10;;;1.33;;